createdAt,value
2019-03-05T00:01:32.346Z,60.70
2019-03-05T00:04:02.073Z,60.60
2019-03-05T00:06:31.830Z,60.80
2019-03-05T00:09:01.549Z,61.40
2019-03-05T00:11:32.865Z,61.70
2019-03-05T00:14:02.583Z,61.40
2019-03-05T00:16:32.302Z,61.20
2019-03-05T00:19:02.801Z,61.60
2019-03-05T00:21:32.541Z,61.40
2019-03-05T00:24:38.544Z,61.60
2019-03-05T00:27:08.269Z,61.50
2019-03-05T00:29:49.455Z,61.80
2019-03-05T00:32:19.174Z,61.40
2019-03-05T00:35:11.597Z,61.40
2019-03-05T00:37:44.245Z,61.80
2019-03-05T00:40:16.949Z,61.60
2019-03-05T00:43:07.917Z,61.90
2019-03-05T00:45:46.400Z,61.90
2019-03-05T00:48:30.371Z,61.30
2019-03-05T00:51:25.143Z,61.20
2019-03-05T00:54:14.754Z,60.90
2019-03-05T00:57:02.294Z,60.90
2019-03-05T00:59:59.088Z,60.60
2019-03-05T01:02:35.015Z,60.70
2019-03-05T01:05:24.137Z,61.20
2019-03-05T01:07:54.198Z,60.90
2019-03-05T01:10:24.821Z,60.70
2019-03-05T01:12:54.678Z,60.60
2019-03-05T01:15:24.693Z,60.80
2019-03-05T01:17:54.465Z,61.00
2019-03-05T01:20:25.185Z,60.20
2019-03-05T01:22:54.950Z,60.70
2019-03-05T01:25:33.166Z,61.00
2019-03-05T01:28:03.935Z,61.20
2019-03-05T01:30:52.695Z,60.80
2019-03-05T01:33:35.431Z,60.30
2019-03-05T01:36:18.972Z,60.20
2019-03-05T01:38:56.025Z,59.80
2019-03-05T01:41:25.746Z,59.10
2019-03-05T01:43:55.478Z,59.20
2019-03-05T01:46:25.206Z,58.90
2019-03-05T01:48:54.930Z,58.70
2019-03-05T01:51:24.698Z,58.50
2019-03-05T01:53:54.426Z,58.50
2019-03-05T01:56:24.174Z,58.30
2019-03-05T01:58:53.897Z,58.20
2019-03-05T02:01:23.625Z,57.90
2019-03-05T02:03:53.349Z,57.70
2019-03-05T02:06:23.063Z,57.60
2019-03-05T02:08:53.837Z,57.40
2019-03-05T02:11:23.561Z,57.20
2019-03-05T02:13:53.387Z,56.80
2019-03-05T02:16:23.101Z,56.80
2019-03-05T02:18:54.584Z,56.10
2019-03-05T02:21:24.345Z,55.80
2019-03-05T02:23:59.965Z,55.50
2019-03-05T02:26:50.554Z,55.60
2019-03-05T02:29:32.437Z,55.30
2019-03-05T02:32:27.803Z,55.40
2019-03-05T02:35:13.681Z,55.00
2019-03-05T02:37:52.178Z,55.00
2019-03-05T02:40:47.678Z,55.10
2019-03-05T02:43:20.374Z,55.40
2019-03-05T02:46:01.338Z,55.70
2019-03-05T02:48:42.611Z,56.50
2019-03-05T02:51:27.286Z,57.60
2019-03-05T02:54:18.272Z,58.60
2019-03-05T02:57:00.059Z,59.60
2019-03-05T02:59:29.841Z,61.00
2019-03-05T03:02:13.441Z,61.90
2019-03-05T03:04:44.769Z,62.50
2019-03-05T03:07:14.513Z,62.90
2019-03-05T03:09:53.142Z,63.60
2019-03-05T03:12:23.863Z,63.80
2019-03-05T03:14:53.638Z,64.40
2019-03-05T03:17:23.362Z,64.70
2019-03-05T03:19:53.227Z,64.90
2019-03-05T03:22:22.964Z,64.90
2019-03-05T03:24:52.674Z,65.00
2019-03-05T03:27:22.394Z,65.20
2019-03-05T03:29:52.121Z,65.50
2019-03-05T03:32:21.886Z,65.50
2019-03-05T03:34:51.614Z,65.80
2019-03-05T03:37:21.351Z,66.00
2019-03-05T03:39:51.071Z,66.00
2019-03-05T03:42:20.812Z,66.30
2019-03-05T03:44:50.574Z,66.50
2019-03-05T03:47:20.309Z,66.40
2019-03-05T03:49:51.087Z,66.40
2019-03-05T03:52:20.809Z,66.10
2019-03-05T03:54:50.538Z,66.00
2019-03-05T03:57:20.266Z,65.80
2019-03-05T03:59:50.023Z,65.50
2019-03-05T04:02:19.763Z,65.30
2019-03-05T04:04:49.487Z,65.30
2019-03-05T04:07:19.220Z,64.90
2019-03-05T04:09:48.931Z,64.70
2019-03-05T04:12:18.699Z,64.80
2019-03-05T04:14:48.414Z,65.10
2019-03-05T04:17:18.171Z,65.20
2019-03-05T04:19:48.290Z,65.10
2019-03-05T04:22:18.037Z,65.00
2019-03-05T04:24:47.762Z,65.10
2019-03-05T04:27:17.489Z,65.30
2019-03-05T04:29:47.209Z,64.80
2019-03-05T04:32:17.921Z,65.00
2019-03-05T04:34:48.634Z,65.00
2019-03-05T04:37:18.349Z,65.10
2019-03-05T04:39:48.113Z,65.10
2019-03-05T04:42:17.842Z,65.40
2019-03-05T04:44:49.179Z,65.60
2019-03-05T04:47:18.894Z,65.80
2019-03-05T04:49:59.368Z,65.70
2019-03-05T04:52:29.111Z,65.80
2019-03-05T04:54:58.874Z,65.70
2019-03-05T04:57:28.585Z,65.80
2019-03-05T04:59:58.316Z,66.10
2019-03-05T05:02:28.049Z,66.30
2019-03-05T05:04:57.769Z,66.00
2019-03-05T05:07:27.498Z,66.00
2019-03-05T05:09:57.228Z,66.00
2019-03-05T05:12:27.003Z,66.10
2019-03-05T05:14:56.716Z,66.00
2019-03-05T05:17:26.442Z,66.10
2019-03-05T05:19:56.189Z,66.40
2019-03-05T05:22:25.905Z,66.50
2019-03-05T05:24:56.464Z,66.30
2019-03-05T05:27:26.183Z,66.10
2019-03-05T05:29:55.945Z,66.40
2019-03-05T05:32:25.669Z,66.60
2019-03-05T05:34:55.396Z,66.40
2019-03-05T05:37:25.115Z,66.50
2019-03-05T05:40:17.244Z,66.50
2019-03-05T05:42:46.958Z,66.90
2019-03-05T05:45:19.442Z,67.00
2019-03-05T05:47:49.140Z,67.20
2019-03-05T05:50:18.917Z,67.30
2019-03-05T05:52:48.629Z,67.50
2019-03-05T05:55:18.361Z,67.70
2019-03-05T05:57:48.386Z,67.70
2019-03-05T06:00:18.097Z,68.20
2019-03-05T06:02:47.874Z,68.30
2019-03-05T06:05:17.592Z,68.30
2019-03-05T06:07:47.328Z,68.40
2019-03-05T06:10:17.040Z,68.20
2019-03-05T06:12:46.770Z,68.30
2019-03-05T06:15:16.801Z,68.00
2019-03-05T06:17:46.518Z,67.40
2019-03-05T06:20:19.333Z,67.00
2019-03-05T06:22:49.073Z,66.40
2019-03-05T06:25:18.876Z,66.70
2019-03-05T06:27:48.563Z,65.00
2019-03-05T06:30:23.205Z,65.70
2019-03-05T06:32:52.930Z,65.50
2019-03-05T06:35:22.657Z,65.20
2019-03-05T06:37:52.396Z,65.10
2019-03-05T06:40:30.777Z,64.10
2019-03-05T06:43:00.502Z,63.70
2019-03-05T06:45:30.268Z,63.20
2019-03-05T06:47:59.987Z,62.80
2019-03-05T06:50:29.814Z,62.00
2019-03-05T06:52:59.704Z,62.30
2019-03-05T06:55:29.430Z,62.30
2019-03-05T06:57:59.199Z,62.30
2019-03-05T07:00:34.686Z,61.90
2019-03-05T07:03:05.944Z,62.20
2019-03-05T07:06:11.998Z,62.10
2019-03-05T07:08:44.845Z,62.70
2019-03-05T07:11:34.209Z,62.50
2019-03-05T07:14:16.022Z,62.70
2019-03-05T07:16:54.285Z,62.50
2019-03-05T07:19:26.352Z,61.90
2019-03-05T07:22:02.011Z,61.80
2019-03-05T07:24:48.030Z,61.40
2019-03-05T07:27:20.975Z,61.90
2019-03-05T07:29:50.726Z,61.70
2019-03-05T07:32:20.441Z,61.70
2019-03-05T07:34:51.998Z,60.80
2019-03-05T07:37:21.714Z,60.90
2019-03-05T07:39:51.434Z,60.90
2019-03-05T07:42:21.162Z,61.10
2019-03-05T07:44:50.878Z,61.10
2019-03-05T07:47:20.640Z,60.60
2019-03-05T07:49:50.347Z,60.70
2019-03-05T07:52:20.082Z,59.90
2019-03-05T07:54:52.316Z,59.60
2019-03-05T07:57:21.162Z,59.30
2019-03-05T07:59:51.044Z,59.30
2019-03-05T08:02:20.770Z,59.10
2019-03-05T08:04:50.484Z,59.10
2019-03-05T08:07:20.213Z,58.20
2019-03-05T08:09:49.936Z,58.10
2019-03-05T08:12:39.224Z,58.20
2019-03-05T08:15:23.225Z,57.60
2019-03-05T08:17:53.007Z,56.90
2019-03-05T08:20:22.735Z,56.30
2019-03-05T08:22:52.453Z,55.80
2019-03-05T08:25:22.241Z,55.20
2019-03-05T08:27:51.971Z,54.40
2019-03-05T08:30:21.692Z,52.60
2019-03-05T08:32:51.427Z,49.20
2019-03-05T08:35:21.138Z,46.60
2019-03-05T08:37:50.913Z,44.20
2019-03-05T08:40:20.932Z,43.20
2019-03-05T08:42:50.714Z,43.90
2019-03-05T08:45:28.836Z,44.70
2019-03-05T08:47:52.043Z,45.80
2019-03-05T08:50:21.777Z,47.20
2019-03-05T08:52:51.603Z,48.30
2019-03-05T08:55:21.330Z,49.50
2019-03-05T08:57:51.093Z,50.00
2019-03-05T09:00:21.426Z,50.30
2019-03-05T09:02:51.586Z,50.40
2019-03-05T09:05:21.314Z,50.80
2019-03-05T09:07:51.197Z,51.30
2019-03-05T09:10:27.889Z,50.60
2019-03-05T09:12:58.052Z,50.60
2019-03-05T09:15:27.918Z,50.60
2019-03-05T09:17:57.687Z,50.50
2019-03-05T09:20:27.420Z,51.10
2019-03-05T09:22:57.130Z,51.30
2019-03-05T09:25:26.906Z,51.20
2019-03-05T09:27:56.626Z,52.00
2019-03-05T09:30:26.338Z,51.80
2019-03-05T09:32:56.093Z,52.20
2019-03-05T09:35:25.813Z,52.00
2019-03-05T09:37:55.529Z,52.20
2019-03-05T09:40:27.878Z,51.70
2019-03-05T09:42:57.597Z,51.80
2019-03-05T09:45:28.374Z,51.10
2019-03-05T09:47:58.366Z,51.30
2019-03-05T09:50:28.104Z,51.60
2019-03-05T09:52:57.813Z,51.40
2019-03-05T09:55:27.678Z,51.60
2019-03-05T09:58:07.486Z,51.40
2019-03-05T10:00:29.905Z,51.00
2019-03-05T10:02:59.629Z,50.90
2019-03-05T10:05:29.362Z,49.90
2019-03-05T10:07:59.094Z,49.00
2019-03-05T10:10:30.809Z,49.10
2019-03-05T10:13:04.385Z,49.40
2019-03-05T10:15:32.803Z,49.30
2019-03-05T10:18:12.356Z,50.00
2019-03-05T10:20:36.322Z,49.30
2019-03-05T10:23:06.248Z,49.10
2019-03-05T10:25:36.041Z,48.70
2019-03-05T10:28:05.857Z,49.40
2019-03-05T10:30:43.998Z,49.10
2019-03-05T10:33:16.095Z,48.70
2019-03-05T10:35:46.566Z,48.20
2019-03-05T10:38:16.385Z,48.10
2019-03-05T10:40:53.872Z,47.90
2019-03-05T10:43:23.682Z,48.20
2019-03-05T10:45:53.425Z,48.30
2019-03-05T10:48:25.162Z,48.20
2019-03-05T10:50:55.075Z,47.90
2019-03-05T10:53:24.844Z,48.20
2019-03-05T10:55:54.574Z,47.90
2019-03-05T10:58:33.271Z,47.60
2019-03-05T11:00:57.793Z,47.10
2019-03-05T11:03:31.603Z,47.50
2019-03-05T11:06:01.754Z,47.40
2019-03-05T11:08:31.637Z,46.60
2019-03-05T11:11:12.595Z,47.00
2019-03-05T11:13:33.045Z,47.00
2019-03-05T11:16:05.279Z,46.30
2019-03-05T11:18:35.941Z,45.80
2019-03-05T11:21:06.373Z,46.20
2019-03-05T11:23:36.103Z,46.50
2019-03-05T11:26:06.015Z,46.60
2019-03-05T11:28:35.741Z,47.20
2019-03-05T11:31:06.268Z,47.40
2019-03-05T11:33:36.035Z,46.80
2019-03-05T11:36:06.147Z,46.30
2019-03-05T11:38:35.965Z,45.30
2019-03-05T11:41:05.741Z,45.40
2019-03-05T11:43:35.463Z,45.10
2019-03-05T11:46:08.194Z,44.40
2019-03-05T11:48:38.249Z,44.10
2019-03-05T11:51:08.357Z,44.80
2019-03-05T11:53:38.095Z,44.60
2019-03-05T11:56:07.803Z,45.10
2019-03-05T11:58:37.533Z,49.50
2019-03-05T12:01:09.446Z,55.00
2019-03-05T12:03:39.170Z,57.80
2019-03-05T12:06:08.941Z,57.80
2019-03-05T12:08:38.657Z,57.80
2019-03-05T12:11:08.383Z,59.20
2019-03-05T12:13:38.112Z,59.40
2019-03-05T12:16:08.228Z,59.80
2019-03-05T12:18:37.995Z,59.80
2019-03-05T12:21:07.813Z,59.80
2019-03-05T12:23:37.541Z,60.00
2019-03-05T12:26:07.261Z,58.10
2019-03-05T12:28:36.991Z,58.00
2019-03-05T12:31:07.854Z,57.30
2019-03-05T12:33:37.578Z,56.30
2019-03-05T12:36:07.298Z,55.10
2019-03-05T12:38:37.035Z,54.40
2019-03-05T12:41:06.769Z,52.40
2019-03-05T12:43:36.494Z,51.20
2019-03-05T12:46:06.338Z,51.10
2019-03-05T12:48:39.828Z,52.10
2019-03-05T12:51:08.053Z,52.20
2019-03-05T12:53:37.826Z,51.90
2019-03-05T12:56:07.834Z,51.90
2019-03-05T12:58:37.589Z,52.20
2019-03-05T13:01:08.230Z,52.70
2019-03-05T13:03:38.098Z,52.90
2019-03-05T13:06:07.843Z,52.00
2019-03-05T13:08:37.574Z,53.30
2019-03-05T13:11:09.388Z,53.10
2019-03-05T13:13:38.672Z,53.30
2019-03-05T13:16:08.437Z,53.80
2019-03-05T13:18:38.169Z,54.00
2019-03-05T13:21:08.771Z,55.20
2019-03-05T13:23:38.555Z,55.90
2019-03-05T13:26:09.270Z,55.80
2019-03-05T13:28:40.481Z,56.20
2019-03-05T13:31:12.446Z,56.10
2019-03-05T13:33:42.310Z,56.30
2019-03-05T13:36:13.322Z,56.10
2019-03-05T13:38:45.216Z,55.30
2019-03-05T13:41:15.637Z,55.10
2019-03-05T13:43:45.897Z,54.30
2019-03-05T13:46:15.702Z,54.40
2019-03-05T13:49:09.048Z,54.70
2019-03-05T13:51:44.330Z,55.30
2019-03-05T13:54:28.282Z,55.90
2019-03-05T13:57:34.528Z,56.00
2019-03-05T14:00:07.406Z,54.90
2019-03-05T14:02:59.174Z,55.40
2019-03-05T14:05:37.090Z,56.60
2019-03-05T14:08:18.642Z,57.00
2019-03-05T14:10:48.470Z,57.50
2019-03-05T14:13:18.239Z,60.70
2019-03-05T14:15:47.954Z,63.50
2019-03-05T14:18:17.720Z,65.90
2019-03-05T14:20:47.416Z,67.80
2019-03-05T14:23:17.165Z,69.20
2019-03-05T14:25:46.891Z,69.60
2019-03-05T14:28:16.618Z,72.60
2019-03-05T14:30:46.350Z,73.20
2019-03-05T14:33:16.098Z,72.60
2019-03-05T14:35:47.593Z,72.10
2019-03-05T14:38:17.600Z,72.90
2019-03-05T14:40:47.315Z,72.80
2019-03-05T14:43:17.210Z,74.20
2019-03-05T14:45:47.423Z,74.00
2019-03-05T14:48:17.217Z,74.50
2019-03-05T14:50:46.919Z,74.60
2019-03-05T14:53:16.643Z,73.80
2019-03-05T14:55:46.396Z,72.10
2019-03-05T14:58:16.192Z,69.80
2019-03-05T15:00:46.177Z,69.40
2019-03-05T15:03:15.927Z,68.30
2019-03-05T15:05:45.702Z,68.70
2019-03-05T15:08:15.421Z,68.90
2019-03-05T15:10:45.169Z,67.30
2019-03-05T15:13:18.591Z,70.30
2019-03-05T15:15:46.412Z,73.10
2019-03-05T15:18:16.126Z,73.00
2019-03-05T15:20:45.916Z,72.10
2019-03-05T15:23:15.616Z,71.50
2019-03-05T15:25:45.335Z,72.40
2019-03-05T15:28:15.070Z,70.50
2019-03-05T15:30:44.767Z,68.20
2019-03-05T15:33:15.448Z,67.40
2019-03-05T15:35:45.151Z,66.80
2019-03-05T15:38:14.893Z,67.20
2019-03-05T15:40:44.610Z,68.90
2019-03-05T15:43:14.346Z,68.90
2019-03-05T15:45:44.068Z,69.40
2019-03-05T15:48:13.847Z,70.70
2019-03-05T15:50:43.601Z,70.10
2019-03-05T15:53:13.302Z,70.50
2019-03-05T15:55:43.026Z,70.10
2019-03-05T15:58:12.768Z,68.40
2019-03-05T16:00:43.420Z,66.80
2019-03-05T16:03:13.125Z,64.60
2019-03-05T16:05:42.982Z,65.10
2019-03-05T16:08:12.699Z,66.10
2019-03-05T16:10:42.432Z,65.10
2019-03-05T16:13:15.212Z,64.40
2019-03-05T16:15:45.474Z,62.90
2019-03-05T16:18:14.919Z,62.10
2019-03-05T16:20:44.687Z,61.10
2019-03-05T16:23:14.405Z,62.50
2019-03-05T16:25:46.169Z,62.80
2019-03-05T16:28:15.921Z,61.90
2019-03-05T16:31:02.335Z,62.40
2019-03-05T16:33:36.967Z,61.80
2019-03-05T16:39:14.063Z,61.40
2019-03-05T16:41:53.319Z,62.10
2019-03-05T16:44:36.903Z,62.00
2019-03-05T16:47:13.930Z,61.40
2019-03-05T16:48:18.923Z,61.70
2019-03-05T16:49:45.235Z,62.30
2019-03-05T16:52:31.802Z,64.80
2019-03-05T16:55:21.633Z,66.10
2019-03-05T16:58:05.079Z,69.90
2019-03-05T17:00:36.380Z,72.40
2019-03-05T17:03:07.708Z,73.50
2019-03-05T17:05:41.442Z,74.60
2019-03-05T17:08:27.758Z,76.20
2019-03-05T17:11:08.270Z,78.00
2019-03-05T17:13:38.155Z,78.90
2019-03-05T17:16:08.290Z,79.60
2019-03-05T17:18:38.255Z,81.00
2019-03-05T17:21:07.978Z,82.10
2019-03-05T17:23:37.718Z,83.50
2019-03-05T17:26:07.446Z,84.70
2019-03-05T17:28:37.174Z,85.20
2019-03-05T17:31:07.551Z,86.00
2019-03-05T17:33:38.167Z,87.00
2019-03-05T17:36:07.925Z,88.10
2019-03-05T17:38:37.961Z,88.80
2019-03-05T17:41:08.230Z,87.70
2019-03-05T17:43:38.165Z,88.40
2019-03-05T17:46:08.170Z,88.70
2019-03-05T17:48:37.877Z,88.70
2019-03-05T17:51:07.705Z,87.30
2019-03-05T17:53:37.523Z,86.60
2019-03-05T17:56:07.249Z,86.10
2019-03-05T17:58:37.014Z,87.70
2019-03-05T18:01:08.333Z,89.70
2019-03-05T18:03:38.896Z,90.30
2019-03-05T18:06:08.618Z,90.70
2019-03-05T18:08:38.389Z,90.70
2019-03-05T18:11:08.105Z,90.90
2019-03-05T18:13:38.288Z,91.90
2019-03-05T18:16:08.015Z,91.90
2019-03-05T18:18:37.914Z,92.40
2019-03-05T18:21:07.837Z,92.50
2019-03-05T18:23:37.793Z,92.50
2019-03-05T18:26:07.523Z,92.70
2019-03-05T18:28:37.453Z,92.60
2019-03-05T18:31:07.289Z,92.80
2019-03-05T18:33:37.022Z,93.00
2019-03-05T18:36:07.606Z,93.20
2019-03-05T18:38:37.739Z,93.30
2019-03-05T18:41:08.539Z,93.20
2019-03-05T18:43:38.364Z,93.00
2019-03-05T18:46:08.259Z,93.00
2019-03-05T18:48:38.006Z,93.10
2019-03-05T18:51:08.898Z,93.00
2019-03-05T18:53:38.625Z,93.10
2019-03-05T18:56:08.362Z,93.20
2019-03-05T18:58:38.094Z,93.30
2019-03-05T19:01:09.751Z,93.30
2019-03-05T19:03:39.526Z,93.30
2019-03-05T19:06:09.330Z,93.50
2019-03-05T19:08:39.475Z,93.60
2019-03-05T19:11:09.254Z,93.80
2019-03-05T19:13:39.006Z,94.00
2019-03-05T19:16:08.874Z,94.20
2019-03-05T19:18:38.655Z,94.40
2019-03-05T19:21:08.358Z,94.60
2019-03-05T19:23:38.102Z,94.80
2019-03-05T19:26:08.343Z,94.80
2019-03-05T19:28:38.338Z,95.10
2019-03-05T19:31:08.119Z,95.30
2019-03-05T19:33:38.053Z,95.60
2019-03-05T19:36:07.794Z,95.50
2019-03-05T19:38:37.569Z,95.60
2019-03-05T19:41:07.317Z,95.50
2019-03-05T19:43:37.074Z,95.60
2019-03-05T19:46:06.846Z,95.50
2019-03-05T19:48:36.596Z,95.40
2019-03-05T19:51:06.328Z,95.40
2019-03-05T19:53:36.067Z,95.30
2019-03-05T19:56:06.806Z,95.30
2019-03-05T19:58:36.771Z,95.40
2019-03-05T20:01:13.816Z,95.60
2019-03-05T20:03:43.772Z,95.80
2019-03-05T20:06:14.082Z,95.80
2019-03-05T20:08:44.269Z,95.80
2019-03-05T20:11:13.990Z,95.80
2019-03-05T20:13:43.831Z,95.80
2019-03-05T20:16:13.618Z,95.60
2019-03-05T20:18:43.371Z,95.60
2019-03-05T20:21:13.250Z,95.80
2019-03-05T20:23:42.991Z,95.80
2019-03-05T20:26:12.729Z,95.70
2019-03-05T20:28:42.474Z,95.70
2019-03-05T20:31:12.755Z,95.70
2019-03-05T20:33:42.526Z,95.80
2019-03-05T20:36:12.249Z,95.90
2019-03-05T20:38:42.437Z,95.90
2019-03-05T20:41:12.178Z,96.00
2019-03-05T20:43:41.938Z,96.00
2019-03-05T20:46:15.377Z,95.90
2019-03-05T20:48:45.158Z,95.90
2019-03-05T20:51:14.908Z,96.10
2019-03-05T20:53:44.643Z,96.10
2019-03-05T20:56:14.491Z,96.10
2019-03-05T20:58:44.254Z,96.10
2019-03-05T21:01:14.099Z,96.10
2019-03-05T21:03:43.829Z,96.10
2019-03-05T21:06:13.575Z,96.10
2019-03-05T21:08:43.314Z,96.10
2019-03-05T21:11:13.050Z,96.20
2019-03-05T21:13:42.898Z,96.30
2019-03-05T21:16:12.668Z,96.30
2019-03-05T21:18:42.378Z,96.40
2019-03-05T21:21:12.176Z,96.30
2019-03-05T21:23:41.899Z,96.40
2019-03-05T21:26:11.641Z,96.40
2019-03-05T21:28:41.389Z,96.30
2019-03-05T21:31:11.217Z,96.20
2019-03-05T21:33:41.105Z,96.10
2019-03-05T21:36:10.833Z,96.10
2019-03-05T21:38:40.571Z,95.80
2019-03-05T21:41:10.314Z,95.70
2019-03-05T21:43:40.080Z,95.90
2019-03-05T21:46:12.973Z,95.90
2019-03-05T21:48:42.857Z,95.80
2019-03-05T21:51:12.586Z,95.70
2019-03-05T21:53:42.528Z,95.60
2019-03-05T21:56:12.266Z,95.60
2019-03-05T21:58:41.983Z,95.60
2019-03-05T22:01:11.753Z,95.50
2019-03-05T22:03:41.483Z,95.50
2019-03-05T22:06:11.253Z,95.50
2019-03-05T22:08:41.077Z,95.40
2019-03-05T22:11:11.859Z,95.50
2019-03-05T22:13:42.591Z,95.50
2019-03-05T22:16:12.455Z,95.60
2019-03-05T22:18:42.198Z,95.60
2019-03-05T22:21:12.998Z,95.20
2019-03-05T22:23:42.730Z,95.40
2019-03-05T22:26:12.461Z,95.30
2019-03-05T22:28:42.340Z,94.80
2019-03-05T22:31:12.099Z,95.30
2019-03-05T22:33:41.834Z,94.90
2019-03-05T22:36:11.850Z,94.80
2019-03-05T22:38:41.594Z,94.80
2019-03-05T22:41:11.330Z,94.70
2019-03-05T22:43:41.107Z,94.60
2019-03-05T22:46:10.838Z,94.60
2019-03-05T22:48:40.578Z,94.40
2019-03-05T22:51:10.608Z,94.30
2019-03-05T22:53:40.374Z,94.40
2019-03-05T22:56:10.115Z,94.30
2019-03-05T22:58:39.873Z,94.30
2019-03-05T23:01:11.105Z,94.30
2019-03-05T23:03:42.530Z,94.20
2019-03-05T23:06:12.964Z,94.20
2019-03-05T23:08:43.430Z,94.10
2019-03-05T23:11:13.845Z,94.10
2019-03-05T23:13:44.306Z,93.90
2019-03-05T23:16:14.542Z,93.80
2019-03-05T23:18:46.510Z,93.80
2019-03-05T23:21:17.541Z,93.80
2019-03-05T23:23:47.238Z,93.70
2019-03-05T23:26:16.967Z,93.50
2019-03-05T23:28:46.689Z,93.50
2019-03-05T23:31:16.418Z,93.60
2019-03-05T23:33:46.146Z,93.50
2019-03-05T23:36:15.930Z,93.40
2019-03-05T23:38:45.666Z,93.40
2019-03-05T23:41:15.398Z,93.40
2019-03-05T23:50:55.963Z,93.50
2019-03-05T23:53:25.870Z,93.20
2019-03-05T23:55:55.606Z,93.20
2019-03-05T23:58:25.337Z,93.20
